ADDS METAR Data INFO
IDs: Format: Raw Decoded Include TAF

Data at: 0935 UTC 17 Oct 2017

KVLL 170915Z AUTO 20004KT 10SM CLR 06/04 A3025 RMK AO2 T00600040
KVLL 170855Z AUTO 20003KT 10SM CLR 06/04 A3025 RMK AO2 T00600039
KVLL 170834Z AUTO 21004KT 10SM CLR 06/04 A3025 RMK AO2 T00610040
KVLL 170815Z AUTO 21004KT 10SM CLR 06/04 A3025 RMK AO2 T00620040
KVLL 170755Z AUTO 21004KT 10SM CLR 07/04 A3025 RMK AO2 T00650040
KVLL 170734Z AUTO 21005KT 10SM CLR 07/04 A3025 RMK AO2 T00660041
KVLL 170715Z AUTO 22004KT 10SM CLR 07/04 A3026 RMK AO2 T00650040
KVLL 170655Z AUTO 22004KT 10SM CLR 07/04 A3026 RMK AO2 T00660040
KVLL 170634Z AUTO 20003KT 10SM CLR 07/04 A3025 RMK AO2 T00700040
KVLL 170615Z AUTO 22004KT 10SM CLR 07/04 A3026 RMK AO2 T00680038
KVLL 170555Z AUTO 22005KT 10SM CLR 07/04 A3026 RMK AO2 T00670036 10096 20066 401390061
KVLL 170534Z AUTO 22004KT 10SM CLR 07/04 A3026 RMK AO2 T00660036
KVLL 170515Z AUTO 22004KT 10SM CLR 07/04 A3025 RMK AO2 T00670036
KVLL 170454Z AUTO 00000KT 10SM CLR 07/04 A3026 RMK AO2 T00670038
KVLL 170435Z AUTO 00000KT 10SM CLR 07/04 A3026 RMK AO2 T00680038
KVLL 170415Z AUTO 22003KT 10SM CLR 07/04 A3025 RMK AO2 T00700036
KVLL 170354Z AUTO 22003KT 10SM CLR 07/03 A3025 RMK AO2 T00740033
KVLL 170335Z AUTO 21004KT 10SM CLR 08/03 A3026 RMK AO2 T00760031
KVLL 170315Z AUTO 22004KT 10SM CLR 08/03 A3026 RMK AO2 T00810030
KVLL 170254Z AUTO 21004KT 10SM CLR 09/03 A3026 RMK AO2 T00870030
KVLL 170235Z AUTO 21005KT 10SM CLR 09/03 A3026 RMK AO2 T00880030
KVLL 170215Z AUTO 21005KT 10SM CLR 09/03 A3026 RMK AO2 T00910030
KVLL 170154Z AUTO 20004KT 10SM CLR 09/03 A3027 RMK AO2 T00870029
KVLL 170135Z AUTO 00000KT 10SM CLR 08/03 A3027 RMK AO2 T00810027
KVLL 170115Z AUTO 00000KT 10SM CLR 08/03 A3027 RMK AO2 T00840030
KVLL 170054Z AUTO 00000KT 10SM CLR 09/03 A3027 RMK AO2 T00880028
KVLL 170035Z AUTO 00000KT 10SM CLR 09/03 A3027 RMK AO2 T00900025
KVLL 170015Z AUTO 00000KT 10SM CLR 09/03 A3027 RMK AO2 T00930026
KVLL 162354Z AUTO 00000KT 10SM CLR 10/02 A3027 RMK AO2 T00970021
KVLL 162335Z AUTO 00000KT 10SM CLR 10/02 A3027 RMK AO2 T01020020
KVLL 162314Z AUTO 21003KT 10SM CLR 11/02 A3027 RMK AO2 T01070015
KVLL 162255Z AUTO 00000KT 10SM CLR 12/01 A3027 RMK AO2 T01170006
KVLL 162235Z AUTO 00000KT 10SM CLR 12/00 A3027 RMK AO2 T01240002
KVLL 162214Z AUTO 26003KT 10SM SCT065 13/00 A3027 RMK AO2 T01281001
KVLL 162155Z AUTO 23003KT 10SM SCT065 13/00 A3027 RMK AO2 T01310000
KVLL 162135Z AUTO 00000KT 10SM SCT070 13/00 A3026 RMK AO2 T01301001
KVLL 162114Z AUTO 31005KT 10SM BKN070 13/M01 A3027 RMK AO2 T01301006
KVLL 162055Z AUTO 31005KT 10SM SCT065 SCT070 13/00 A3027 RMK AO2 T01321002
KVLL 162035Z AUTO 30004KT 10SM SCT060 13/M01 A3027 RMK AO2 T01341006
KVLL 162014Z AUTO 28006KT 10SM SCT055 SCT070 13/M01 A3027 RMK AO2 T01301007
KVLL 161955Z AUTO 25006KT 10SM SCT055 SCT070 14/00 A3027 RMK AO2 T01381005
KVLL 161934Z AUTO 30009KT 10SM SCT055 14/00 A3027 RMK AO2 T01361005
KVLL 161915Z AUTO 24005KT 10SM SCT055 14/M01 A3028 RMK AO2 T01381008
KVLL 161855Z AUTO 32003KT 10SM SCT055 13/00 A3028 RMK AO2 T01341001
KVLL 161834Z AUTO 29003KT 10SM CLR 13/M01 A3028 RMK AO2 T01271007
KVLL 161815Z AUTO 26006KT 10SM CLR 13/M01 A3029 RMK AO2 T01261007
KVLL 161755Z AUTO 30005KT 10SM CLR 12/M01 A3029 RMK AO2 T01211009 10126 20066
KVLL 161734Z AUTO 26008KT 10SM CLR 13/M01 A3030 RMK AO2 T01251011
KVLL 161715Z AUTO 26006KT 10SM CLR 12/00 A3030 RMK AO2 T01230002
KVLL 161655Z AUTO 27005KT 10SM CLR 11/00 A3031 RMK AO2 T01120002
KVLL 161634Z AUTO 27004KT 10SM CLR 11/00 A3031 RMK AO2 T01120003
KVLL 161615Z AUTO 29005KT 10SM CLR 11/01 A3031 RMK AO2 T01080006
KVLL 161554Z AUTO 30004KT 10SM CLR 10/01 A3032 RMK AO2 T01020009
KVLL 161535Z AUTO 32004KT 10SM CLR 10/00 A3031 RMK AO2 T00960003
KVLL 161515Z AUTO 32005KT 10SM CLR 09/01 A3031 RMK AO2 T00910007
KVLL 161454Z AUTO 31005KT 10SM CLR 09/02 A3031 RMK AO2 T00870017
KVLL 161435Z AUTO 34004KT 10SM SCT100 08/02 A3031 RMK AO2 T00800022
KVLL 161415Z AUTO 32007KT 10SM BKN100 08/03 A3031 RMK AO2 T00760025
KVLL 161354Z AUTO 31004KT 10SM OVC090 07/03 A3031 RMK AO2 T00740027
KVLL 161335Z AUTO 32004KT 10SM OVC090 07/03 A3030 RMK AO2 T00720026
KVLL 161315Z AUTO 31003KT 10SM SCT070 OVC090 07/03 A3030 RMK AO2 T00710026
KVLL 161255Z AUTO 29003KT 10SM SCT070 BKN090 OVC110 07/03 A3030 RMK AO2 T00690028
KVLL 161234Z AUTO 29003KT 10SM BKN080 OVC110 07/03 A3029 RMK AO2 T00660027
KVLL 161215Z AUTO 00000KT 10SM OVC080 07/03 A3028 RMK AO2 T00670029
KVLL 161155Z AUTO 28003KT 10SM BKN085 OVC100 07/03 A3027 RMK AO2 T00660029 10071 20061
KVLL 161134Z AUTO 27003KT 10SM OVC100 07/03 A3027 RMK AO2 T00650029
KVLL 161115Z AUTO 29003KT 10SM BKN080 OVC100 07/03 A3026 RMK AO2 T00650032
KVLL 161054Z AUTO 30003KT 10SM BKN080 OVC090 07/04 A3026 RMK AO2 T00650035
KVLL 161035Z AUTO 31003KT 10SM BKN080 BKN110 06/04 A3025 RMK AO2 T00620035
KVLL 161015Z AUTO 30003KT 10SM BKN110 07/04 A3025 RMK AO2 T00650037
KVLL 160954Z AUTO 30003KT 10SM OVC100 07/04 A3024 RMK AO2 T00660040
KVLL 160935Z AUTO 33005KT 10SM OVC100 07/04 A3023 RMK AO2 T00660042
KVLL 160915Z AUTO 32004KT 10SM SCT090 OVC110 07/04 A3023 RMK AO2 T00680044
KVLL 160854Z AUTO 00000KT 10SM OVC110 07/05 A3022 RMK AO2 T00680046
KVLL 160835Z AUTO 00000KT 10SM OVC110 07/05 A3022 RMK AO2 T00690047
KVLL 160814Z AUTO 28003KT 10SM OVC100 07/04 A3020 RMK AO2 T00650044
KVLL 160755Z AUTO 29003KT 10SM BKN100 06/04 A3020 RMK AO2 T00630041
KVLL 160735Z AUTO 32003KT 10SM SCT100 06/04 A3019 RMK AO2 T00610040
KVLL 160714Z AUTO 00000KT 10SM CLR 06/04 A3020 RMK AO2 T00630039
KVLL 160655Z AUTO 31003KT 10SM CLR 07/04 A3019 RMK AO2 T00650040
KVLL 160635Z AUTO 00000KT 10SM CLR 07/04 A3019 RMK AO2 T00660040
KVLL 160614Z AUTO 31003KT 10SM CLR 07/04 A3019 RMK AO2 T00700041
KVLL 160555Z AUTO 31003KT 10SM CLR 07/04 A3019 RMK AO2 T00720042 10115 20072 402250072
KVLL 160535Z AUTO 31004KT 10SM CLR 07/04 A3018 RMK AO2 T00740042
KVLL 160514Z AUTO 32004KT 10SM CLR 08/04 A3018 RMK AO2 T00760043
KVLL 160455Z AUTO 31005KT 10SM CLR 08/05 A3017 RMK AO2 T00780045
KVLL 160435Z AUTO 31004KT 10SM CLR 08/05 A3017 RMK AO2 T00800045
KVLL 160414Z AUTO 30004KT 10SM CLR 08/04 A3016 RMK AO2 T00830042
KVLL 160355Z AUTO 30004KT 10SM CLR 09/04 A3016 RMK AO2 T00860040
KVLL 160335Z AUTO 32006KT 10SM CLR 09/04 A3015 RMK AO2 T00900036
KVLL 160314Z AUTO 32006G14KT 10SM SCT041 09/04 A3014 RMK AO2 T00910035
KVLL 160255Z AUTO 32006KT 10SM SCT041 10/03 A3014 RMK AO2 T00950033
KVLL 160235Z AUTO 32007KT 10SM CLR 10/04 A3013 RMK AO2 T00960035
KVLL 160214Z AUTO 31010G14KT 10SM SCT041 10/04 A3013 RMK AO2 T01000035
KVLL 160155Z AUTO 31011G20KT 10SM OVC041 10/04 A3011 RMK AO2 T01020035
KVLL 160135Z AUTO 33007G18KT 10SM OVC039 10/04 A3010 RMK AO2 T01020036
KVLL 160114Z AUTO 33010G18KT 10SM BKN039 10/04 A3009 RMK AO2 T01020036
KVLL 160055Z AUTO 34010G19KT 10SM SCT039 10/03 A3008 RMK AO2 T01030034
KVLL 160035Z AUTO 33011G23KT 10SM BKN039 11/04 A3007 RMK AO2 T01060036
KVLL 160014Z AUTO 31014G22KT 10SM OVC039 11/04 A3005 RMK AO2 T01130040
KVLL 152355Z AUTO 32015G21KT 10SM OVC041 12/04 A3004 RMK AO2 T01160043 10171 20116
KVLL 152335Z AUTO 31013G20KT 270V330 10SM OVC041 12/05 A3002 RMK AO2 T01170050
KVLL 152314Z AUTO 31015G18KT 10SM SCT041 12/05 A3000 RMK AO2 T01180050
KVLL 152255Z AUTO 31015G28KT 10SM SCT040 12/05 A2999 RMK AO2 T01210047
KVLL 152235Z AUTO 30016G26KT 10SM BKN040 13/06 A2997 RMK AO2 T01250057
KVLL 152214Z AUTO 30017G24KT 10SM SCT031 BKN041 13/07 A2995 RMK AO2 T01310065
KVLL 152155Z AUTO 29014G28KT 10SM SCT028 BKN043 OVC050 14/08 A2994 RMK AO2 T01350076